Olney, Maryland
Current Conditions -  °F | °C
As of 11:55 PM on Monday 20 Oct 2014 (Local Time) from KGAI Reporting Station
Overcast Overcast  
Wind Chill: 57°   Ceiling: 9500
Heat Index: 57°   Visibility: 10mi
Dew Point: 46°   Wind: 7mph
Humidity: 67%   Direction: 190°S
Pressure: 29.96"   Gusts: NA
Location:  39.15°N, 77.07°W
Report Text: KGAI 210355Z 19006KT 10SM FEW070 OVC095 14/08 A2996 RMK AO1
Loading
Personal Weather Stations






























Interactive Weather Map New forecast layout! Learn more

10-Day Weather Forecast

Advertisements
Track Severe Weather on mobile